createdAt,value
2019-03-01T00:02:55.212Z,63.23
2019-03-01T00:33:10.211Z,61.97
2019-03-01T01:03:13.661Z,59.93
2019-03-01T01:33:17.106Z,60.07
2019-03-01T02:03:20.531Z,57.03
2019-03-01T02:33:23.970Z,55.43
2019-03-01T03:03:27.556Z,55.43
2019-03-01T03:33:30.964Z,57.60
2019-03-01T04:03:34.383Z,56.73
2019-03-01T04:33:37.828Z,59.07
2019-03-01T05:03:41.256Z,49.90
2019-03-01T05:33:44.714Z,48.93
2019-03-01T06:03:56.873Z,47.50
2019-03-01T06:34:21.213Z,47.27
2019-03-01T07:04:24.626Z,49.07
2019-03-01T07:34:28.057Z,49.57
2019-03-01T08:04:31.474Z,47.23
2019-03-01T08:34:35.352Z,47.30
2019-03-01T09:04:38.802Z,42.13
2019-03-01T09:34:42.270Z,38.85
2019-03-01T10:04:45.726Z,42.23
2019-03-01T10:34:49.151Z,44.77
2019-03-01T11:04:52.581Z,47.33
2019-03-01T11:34:56.009Z,47.80
2019-03-01T12:04:59.409Z,52.50
2019-03-01T12:35:02.857Z,51.37
2019-03-01T13:05:08.953Z,49.43
2019-03-01T13:35:14.466Z,39.27
2019-03-01T14:05:17.951Z,39.97
2019-03-01T14:35:25.966Z,53.70
2019-03-01T15:05:26.419Z,55.57
2019-03-01T15:35:29.822Z,52.93
2019-03-01T16:05:37.121Z,42.83
2019-03-01T16:35:39.293Z,56.37
2019-03-01T17:05:42.776Z,60.50
2019-03-01T17:35:46.182Z,48.67
2019-03-01T18:05:49.616Z,60.10
2019-03-01T18:35:55.749Z,54.13
2019-03-01T19:05:58.084Z,50.23
2019-03-01T19:36:03.588Z,56.20
2019-03-01T20:06:07.985Z,48.03
2019-03-01T20:36:13.826Z,52.63
2019-03-01T21:06:16.706Z,53.23
2019-03-01T21:36:23.031Z,51.33
2019-03-01T22:06:25.234Z,51.50
2019-03-01T22:36:28.687Z,45.70
2019-03-01T23:06:32.090Z,46.40
2019-03-01T23:36:35.758Z,43.37
